sensor_id;sensor_type;location;lat;lon;timestamp;temperature;humidity
67603;DHT22;54417;47.454;18.918;2023-05-10T00:03:29;10.90;77.97
67603;DHT22;54417;47.454;18.918;2023-05-10T00:08:39;10.78;78.63
67603;DHT22;54417;47.454;18.918;2023-05-10T00:13:48;10.64;78.81
67603;DHT22;54417;47.454;18.918;2023-05-10T00:18:57;10.59;79.04
67603;DHT22;54417;47.454;18.918;2023-05-10T00:24:02;10.50;79.42
67603;DHT22;54417;47.454;18.918;2023-05-10T00:29:12;10.45;79.98
67603;DHT22;54417;47.454;18.918;2023-05-10T00:34:16;10.42;79.81
67603;DHT22;54417;47.454;18.918;2023-05-10T00:39:26;10.35;80.27
67603;DHT22;54417;47.454;18.918;2023-05-10T00:44:30;10.33;80.25
67603;DHT22;54417;47.454;18.918;2023-05-10T00:49:35;10.17;80.57
67603;DHT22;54417;47.454;18.918;2023-05-10T00:54:41;10.12;80.87
67603;DHT22;54417;47.454;18.918;2023-05-10T00:59:46;9.96;81.22
67603;DHT22;54417;47.454;18.918;2023-05-10T01:04:49;10.09;81.69
67603;DHT22;54417;47.454;18.918;2023-05-10T01:10:00;10.09;81.27
67603;DHT22;54417;47.454;18.918;2023-05-10T01:15:10;10.01;81.89
67603;DHT22;54417;47.454;18.918;2023-05-10T01:20:15;9.87;82.00
67603;DHT22;54417;47.454;18.918;2023-05-10T01:25:32;9.73;82.26
67603;DHT22;54417;47.454;18.918;2023-05-10T01:31:06;9.71;82.69
67603;DHT22;54417;47.454;18.918;2023-05-10T01:36:19;9.65;82.66
67603;DHT22;54417;47.454;18.918;2023-05-10T01:41:40;9.47;82.91
67603;DHT22;54417;47.454;18.918;2023-05-10T01:46:51;9.46;83.02
67603;DHT22;54417;47.454;18.918;2023-05-10T01:52:01;9.20;83.71
67603;DHT22;54417;47.454;18.918;2023-05-10T01:57:13;9.02;84.43
67603;DHT22;54417;47.454;18.918;2023-05-10T02:02:20;9.08;84.50
67603;DHT22;54417;47.454;18.918;2023-05-10T02:07:32;9.02;84.97
67603;DHT22;54417;47.454;18.918;2023-05-10T02:12:39;9.12;84.47
67603;DHT22;54417;47.454;18.918;2023-05-10T02:17:46;9.10;84.42
67603;DHT22;54417;47.454;18.918;2023-05-10T02:22:54;9.03;84.68
67603;DHT22;54417;47.454;18.918;2023-05-10T02:28:02;9.18;84.59
67603;DHT22;54417;47.454;18.918;2023-05-10T02:33:12;9.36;84.17
67603;DHT22;54417;47.454;18.918;2023-05-10T02:38:18;9.44;84.29
67603;DHT22;54417;47.454;18.918;2023-05-10T02:43:24;9.82;83.53
67603;DHT22;54417;47.454;18.918;2023-05-10T02:48:28;10.13;82.55
67603;DHT22;54417;47.454;18.918;2023-05-10T02:53:35;10.33;81.98
67603;DHT22;54417;47.454;18.918;2023-05-10T02:58:39;10.33;81.48
67603;DHT22;54417;47.454;18.918;2023-05-10T03:03:43;10.47;80.75
67603;DHT22;54417;47.454;18.918;2023-05-10T03:08:48;10.43;80.70
67603;DHT22;54417;47.454;18.918;2023-05-10T03:14:03;10.25;80.84
67603;DHT22;54417;47.454;18.918;2023-05-10T03:19:17;10.12;80.74
67603;DHT22;54417;47.454;18.918;2023-05-10T03:24:27;10.05;81.16
67603;DHT22;54417;47.454;18.918;2023-05-10T03:29:34;9.95;81.27
67603;DHT22;54417;47.454;18.918;2023-05-10T03:34:44;9.94;81.39
67603;DHT22;54417;47.454;18.918;2023-05-10T03:39:55;9.81;81.79
67603;DHT22;54417;47.454;18.918;2023-05-10T03:44:59;9.77;81.81
67603;DHT22;54417;47.454;18.918;2023-05-10T03:50:08;9.73;81.87
67603;DHT22;54417;47.454;18.918;2023-05-10T03:55:14;9.75;81.73
67603;DHT22;54417;47.454;18.918;2023-05-10T04:00:19;9.79;81.45
67603;DHT22;54417;47.454;18.918;2023-05-10T04:05:32;9.79;81.46
67603;DHT22;54417;47.454;18.918;2023-05-10T04:10:42;9.79;81.48
67603;DHT22;54417;47.454;18.918;2023-05-10T04:15:46;9.79;81.41
67603;DHT22;54417;47.454;18.918;2023-05-10T04:20:54;9.94;81.16
67603;DHT22;54417;47.454;18.918;2023-05-10T04:26:04;10.28;80.15
67603;DHT22;54417;47.454;18.918;2023-05-10T04:31:09;10.61;79.06
67603;DHT22;54417;47.454;18.918;2023-05-10T04:36:19;10.94;78.46
67603;DHT22;54417;47.454;18.918;2023-05-10T04:41:29;11.15;77.29
67603;DHT22;54417;47.454;18.918;2023-05-10T04:46:38;11.38;77.00
67603;DHT22;54417;47.454;18.918;2023-05-10T04:51:47;11.69;76.27
67603;DHT22;54417;47.454;18.918;2023-05-10T04:56:57;11.87;75.75
67603;DHT22;54417;47.454;18.918;2023-05-10T05:02:06;12.07;75.56
67603;DHT22;54417;47.454;18.918;2023-05-10T05:07:10;12.25;74.92
67603;DHT22;54417;47.454;18.918;2023-05-10T05:12:15;12.35;74.51
67603;DHT22;54417;47.454;18.918;2023-05-10T05:17:23;12.63;74.16
67603;DHT22;54417;47.454;18.918;2023-05-10T05:22:32;12.92;74.04
67603;DHT22;54417;47.454;18.918;2023-05-10T05:27:43;13.02;72.01
67603;DHT22;54417;47.454;18.918;2023-05-10T05:32:47;13.38;71.68
67603;DHT22;54417;47.454;18.918;2023-05-10T05:37:50;13.58;70.66
67603;DHT22;54417;47.454;18.918;2023-05-10T05:43:00;13.86;70.30
67603;DHT22;54417;47.454;18.918;2023-05-10T05:48:09;14.08;69.36
67603;DHT22;54417;47.454;18.918;2023-05-10T05:53:18;14.19;69.88
67603;DHT22;54417;47.454;18.918;2023-05-10T05:58:24;14.56;68.46
67603;DHT22;54417;47.454;18.918;2023-05-10T06:03:33;14.87;67.14
67603;DHT22;54417;47.454;18.918;2023-05-10T06:08:41;14.99;67.12
67603;DHT22;54417;47.454;18.918;2023-05-10T06:13:51;14.92;65.68
67603;DHT22;54417;47.454;18.918;2023-05-10T06:19:01;15.22;65.90
67603;DHT22;54417;47.454;18.918;2023-05-10T06:24:10;15.25;64.83
67603;DHT22;54417;47.454;18.918;2023-05-10T06:29:20;15.20;65.22
67603;DHT22;54417;47.454;18.918;2023-05-10T06:34:29;15.19;64.98
67603;DHT22;54417;47.454;18.918;2023-05-10T06:39:38;15.22;65.26
67603;DHT22;54417;47.454;18.918;2023-05-10T06:44:48;15.56;63.58
67603;DHT22;54417;47.454;18.918;2023-05-10T06:49:57;15.76;64.29
67603;DHT22;54417;47.454;18.918;2023-05-10T06:55:06;15.83;62.88
67603;DHT22;54417;47.454;18.918;2023-05-10T07:00:13;16.12;62.14
67603;DHT22;54417;47.454;18.918;2023-05-10T07:05:17;15.94;61.40
67603;DHT22;54417;47.454;18.918;2023-05-10T07:10:27;16.41;61.82
67603;DHT22;54417;47.454;18.918;2023-05-10T07:15:38;16.38;61.42
67603;DHT22;54417;47.454;18.918;2023-05-10T07:20:47;16.42;59.75
67603;DHT22;54417;47.454;18.918;2023-05-10T07:25:51;17.23;58.55
67603;DHT22;54417;47.454;18.918;2023-05-10T07:30:57;17.93;59.31
67603;DHT22;54417;47.454;18.918;2023-05-10T07:36:06;17.81;56.39
67603;DHT22;54417;47.454;18.918;2023-05-10T07:41:15;18.26;56.06
67603;DHT22;54417;47.454;18.918;2023-05-10T07:46:20;18.88;54.31
67603;DHT22;54417;47.454;18.918;2023-05-10T07:51:24;18.89;53.92
67603;DHT22;54417;47.454;18.918;2023-05-10T07:56:28;18.82;54.80
67603;DHT22;54417;47.454;18.918;2023-05-10T08:01:40;18.29;55.16
67603;DHT22;54417;47.454;18.918;2023-05-10T08:06:49;18.50;56.15
67603;DHT22;54417;47.454;18.918;2023-05-10T08:11:57;18.21;55.63
67603;DHT22;54417;47.454;18.918;2023-05-10T08:17:08;18.27;55.16
67603;DHT22;54417;47.454;18.918;2023-05-10T08:22:12;18.18;55.39
67603;DHT22;54417;47.454;18.918;2023-05-10T08:27:21;18.75;54.38
67603;DHT22;54417;47.454;18.918;2023-05-10T08:32:26;19.00;53.60
67603;DHT22;54417;47.454;18.918;2023-05-10T08:37:35;18.54;52.60
67603;DHT22;54417;47.454;18.918;2023-05-10T08:42:40;18.92;53.04
67603;DHT22;54417;47.454;18.918;2023-05-10T08:47:48;19.44;53.94
67603;DHT22;54417;47.454;18.918;2023-05-10T08:53:00;19.50;51.39
67603;DHT22;54417;47.454;18.918;2023-05-10T08:58:07;19.54;51.85
67603;DHT22;54417;47.454;18.918;2023-05-10T09:03:18;19.47;52.62
67603;DHT22;54417;47.454;18.918;2023-05-10T09:08:23;18.87;51.72
67603;DHT22;54417;47.454;18.918;2023-05-10T09:13:33;18.10;53.45
67603;DHT22;54417;47.454;18.918;2023-05-10T09:18:44;19.10;52.57
67603;DHT22;54417;47.454;18.918;2023-05-10T09:23:48;19.10;51.22
67603;DHT22;54417;47.454;18.918;2023-05-10T09:28:59;19.54;50.34
67603;DHT22;54417;47.454;18.918;2023-05-10T09:34:11;19.65;49.82
67603;DHT22;54417;47.454;18.918;2023-05-10T09:39:20;19.81;49.75
67603;DHT22;54417;47.454;18.918;2023-05-10T09:44:29;19.08;52.78
67603;DHT22;54417;47.454;18.918;2023-05-10T09:49:41;19.23;48.97
67603;DHT22;54417;47.454;18.918;2023-05-10T09:54:53;19.41;49.03
67603;DHT22;54417;47.454;18.918;2023-05-10T10:00:02;19.63;50.62
67603;DHT22;54417;47.454;18.918;2023-05-10T10:05:21;19.58;50.21
67603;DHT22;54417;47.454;18.918;2023-05-10T10:10:36;20.46;47.54
67603;DHT22;54417;47.454;18.918;2023-05-10T10:15:46;20.56;48.86
67603;DHT22;54417;47.454;18.918;2023-05-10T10:21:01;20.26;46.62
67603;DHT22;54417;47.454;18.918;2023-05-10T10:26:06;20.22;49.78
67603;DHT22;54417;47.454;18.918;2023-05-10T10:31:19;20.01;50.27
67603;DHT22;54417;47.454;18.918;2023-05-10T10:36:28;20.11;47.70
67603;DHT22;54417;47.454;18.918;2023-05-10T10:41:34;20.52;49.00
67603;DHT22;54417;47.454;18.918;2023-05-10T10:46:58;20.79;46.69
67603;DHT22;54417;47.454;18.918;2023-05-10T10:52:18;20.76;45.49
67603;DHT22;54417;47.454;18.918;2023-05-10T10:57:31;20.19;45.77
67603;DHT22;54417;47.454;18.918;2023-05-10T11:02:44;21.27;46.61
67603;DHT22;54417;47.454;18.918;2023-05-10T11:07:58;21.29;44.11
67603;DHT22;54417;47.454;18.918;2023-05-10T11:13:08;21.29;45.64
67603;DHT22;54417;47.454;18.918;2023-05-10T11:18:17;20.98;44.65
67603;DHT22;54417;47.454;18.918;2023-05-10T11:23:32;21.22;45.94
67603;DHT22;54417;47.454;18.918;2023-05-10T11:28:41;21.25;43.63
67603;DHT22;54417;47.454;18.918;2023-05-10T11:33:51;20.79;45.12
67603;DHT22;54417;47.454;18.918;2023-05-10T11:39:02;20.94;45.25
67603;DHT22;54417;47.454;18.918;2023-05-10T11:44:11;21.00;43.82
67603;DHT22;54417;47.454;18.918;2023-05-10T11:49:23;21.04;44.98
67603;DHT22;54417;47.454;18.918;2023-05-10T11:54:30;20.84;43.29
67603;DHT22;54417;47.454;18.918;2023-05-10T11:59:34;20.40;45.44
67603;DHT22;54417;47.454;18.918;2023-05-10T12:04:43;20.05;45.37
67603;DHT22;54417;47.454;18.918;2023-05-10T12:15:25;21.49;42.08
67603;DHT22;54417;47.454;18.918;2023-05-10T12:20:35;21.58;42.97
67603;DHT22;54417;47.454;18.918;2023-05-10T12:25:44;21.34;42.39
67603;DHT22;54417;47.454;18.918;2023-05-10T12:30:53;21.41;42.14
67603;DHT22;54417;47.454;18.918;2023-05-10T12:35:59;21.63;42.72
67603;DHT22;54417;47.454;18.918;2023-05-10T12:41:04;21.72;43.82
67603;DHT22;54417;47.454;18.918;2023-05-10T12:46:10;21.48;43.55
67603;DHT22;54417;47.454;18.918;2023-05-10T12:51:15;21.34;42.73
67603;DHT22;54417;47.454;18.918;2023-05-10T12:56:26;21.25;42.67
67603;DHT22;54417;47.454;18.918;2023-05-10T13:01:31;20.64;42.88
67603;DHT22;54417;47.454;18.918;2023-05-10T13:06:35;20.47;43.91
67603;DHT22;54417;47.454;18.918;2023-05-10T13:11:44;20.21;43.83
67603;DHT22;54417;47.454;18.918;2023-05-10T13:16:56;20.50;45.74
67603;DHT22;54417;47.454;18.918;2023-05-10T13:22:04;20.53;43.37
67603;DHT22;54417;47.454;18.918;2023-05-10T13:27:13;20.35;43.45
67603;DHT22;54417;47.454;18.918;2023-05-10T13:32:23;21.10;42.76
67603;DHT22;54417;47.454;18.918;2023-05-10T13:37:33;21.38;43.14
67603;DHT22;54417;47.454;18.918;2023-05-10T13:42:39;21.41;42.45
67603;DHT22;54417;47.454;18.918;2023-05-10T13:47:49;20.98;42.07
67603;DHT22;54417;47.454;18.918;2023-05-10T13:52:54;20.92;42.41
67603;DHT22;54417;47.454;18.918;2023-05-10T13:58:03;21.02;41.50
67603;DHT22;54417;47.454;18.918;2023-05-10T14:03:13;20.91;41.54
67603;DHT22;54417;47.454;18.918;2023-05-10T14:08:22;21.22;41.78
67603;DHT22;54417;47.454;18.918;2023-05-10T14:13:26;21.59;41.18
67603;DHT22;54417;47.454;18.918;2023-05-10T14:18:36;21.93;39.32
67603;DHT22;54417;47.454;18.918;2023-05-10T14:23:45;22.00;38.55
67603;DHT22;54417;47.454;18.918;2023-05-10T14:28:54;22.11;39.46
67603;DHT22;54417;47.454;18.918;2023-05-10T14:33:59;22.28;37.38
67603;DHT22;54417;47.454;18.918;2023-05-10T14:39:08;22.25;36.62
67603;DHT22;54417;47.454;18.918;2023-05-10T14:44:17;22.17;37.32
67603;DHT22;54417;47.454;18.918;2023-05-10T14:49:27;21.94;37.73
67603;DHT22;54417;47.454;18.918;2023-05-10T14:54:31;22.01;39.18
67603;DHT22;54417;47.454;18.918;2023-05-10T14:59:40;21.85;38.88
67603;DHT22;54417;47.454;18.918;2023-05-10T15:04:46;22.82;36.76
67603;DHT22;54417;47.454;18.918;2023-05-10T15:09:55;22.41;37.64
67603;DHT22;54417;47.454;18.918;2023-05-10T15:15:05;24.47;34.06
67603;DHT22;54417;47.454;18.918;2023-05-10T15:20:15;25.96;32.36
67603;DHT22;54417;47.454;18.918;2023-05-10T15:25:24;24.33;34.01
67603;DHT22;54417;47.454;18.918;2023-05-10T15:30:33;22.27;37.78
67603;DHT22;54417;47.454;18.918;2023-05-10T15:35:43;21.45;40.27
67603;DHT22;54417;47.454;18.918;2023-05-10T15:40:52;20.85;40.77
67603;DHT22;54417;47.454;18.918;2023-05-10T15:45:58;20.29;41.47
67603;DHT22;54417;47.454;18.918;2023-05-10T15:51:04;20.62;39.48
67603;DHT22;54417;47.454;18.918;2023-05-10T15:56:07;20.06;40.38
67603;DHT22;54417;47.454;18.918;2023-05-10T16:01:11;19.46;41.28
67603;DHT22;54417;47.454;18.918;2023-05-10T16:06:16;19.49;42.02
67603;DHT22;54417;47.454;18.918;2023-05-10T16:11:25;19.46;42.81
67603;DHT22;54417;47.454;18.918;2023-05-10T16:16:34;19.29;42.15
67603;DHT22;54417;47.454;18.918;2023-05-10T16:21:39;19.06;42.65
67603;DHT22;54417;47.454;18.918;2023-05-10T16:26:48;18.75;42.81
67603;DHT22;54417;47.454;18.918;2023-05-10T16:31:57;18.87;42.76
67603;DHT22;54417;47.454;18.918;2023-05-10T16:37:07;18.92;43.22
67603;DHT22;54417;47.454;18.918;2023-05-10T16:42:17;18.82;42.63
67603;DHT22;54417;47.454;18.918;2023-05-10T16:47:21;18.85;42.74
67603;DHT22;54417;47.454;18.918;2023-05-10T16:52:35;18.69;43.17
67603;DHT22;54417;47.454;18.918;2023-05-10T16:57:38;18.71;43.33
67603;DHT22;54417;47.454;18.918;2023-05-10T17:02:42;18.69;43.92
67603;DHT22;54417;47.454;18.918;2023-05-10T17:07:48;18.54;43.93
67603;DHT22;54417;47.454;18.918;2023-05-10T17:12:56;18.23;46.64
67603;DHT22;54417;47.454;18.918;2023-05-10T17:18:05;17.94;47.65
67603;DHT22;54417;47.454;18.918;2023-05-10T17:23:16;17.68;48.62
67603;DHT22;54417;47.454;18.918;2023-05-10T17:28:24;17.45;49.69
67603;DHT22;54417;47.454;18.918;2023-05-10T17:33:33;17.24;50.78
67603;DHT22;54417;47.454;18.918;2023-05-10T17:38:43;17.04;51.54
67603;DHT22;54417;47.454;18.918;2023-05-10T17:43:52;16.86;52.49
67603;DHT22;54417;47.454;18.918;2023-05-10T17:49:01;16.72;53.16
67603;DHT22;54417;47.454;18.918;2023-05-10T17:54:12;16.60;53.70
67603;DHT22;54417;47.454;18.918;2023-05-10T17:59:21;16.48;53.90
67603;DHT22;54417;47.454;18.918;2023-05-10T18:04:29;16.42;54.16
67603;DHT22;54417;47.454;18.918;2023-05-10T18:09:40;16.21;55.20
67603;DHT22;54417;47.454;18.918;2023-05-10T18:14:44;16.11;55.07
67603;DHT22;54417;47.454;18.918;2023-05-10T18:19:48;16.05;55.10
67603;DHT22;54417;47.454;18.918;2023-05-10T18:24:53;16.00;55.39
67603;DHT22;54417;47.454;18.918;2023-05-10T18:29:57;15.81;55.83
67603;DHT22;54417;47.454;18.918;2023-05-10T18:35:06;15.66;56.35
67603;DHT22;54417;47.454;18.918;2023-05-10T18:40:17;15.49;56.21
67603;DHT22;54417;47.454;18.918;2023-05-10T18:45:26;15.23;57.34
67603;DHT22;54417;47.454;18.918;2023-05-10T18:50:38;15.20;57.59
67603;DHT22;54417;47.454;18.918;2023-05-10T18:55:58;14.95;58.25
67603;DHT22;54417;47.454;18.918;2023-05-10T19:01:03;14.89;58.30
67603;DHT22;54417;47.454;18.918;2023-05-10T19:06:13;14.67;58.63
67603;DHT22;54417;47.454;18.918;2023-05-10T19:11:18;14.61;58.49
67603;DHT22;54417;47.454;18.918;2023-05-10T19:16:23;14.59;58.03
67603;DHT22;54417;47.454;18.918;2023-05-10T19:21:30;14.45;58.20
67603;DHT22;54417;47.454;18.918;2023-05-10T19:26:36;14.36;58.68
67603;DHT22;54417;47.454;18.918;2023-05-10T19:31:40;14.32;58.59
67603;DHT22;54417;47.454;18.918;2023-05-10T19:36:45;14.17;58.83
67603;DHT22;54417;47.454;18.918;2023-05-10T19:41:55;14.08;59.08
67603;DHT22;54417;47.454;18.918;2023-05-10T19:46:59;14.02;59.06
67603;DHT22;54417;47.454;18.918;2023-05-10T19:52:06;13.95;59.72
67603;DHT22;54417;47.454;18.918;2023-05-10T19:57:21;13.86;59.33
67603;DHT22;54417;47.454;18.918;2023-05-10T20:02:29;13.65;60.31
67603;DHT22;54417;47.454;18.918;2023-05-10T20:07:35;13.47;61.68
67603;DHT22;54417;47.454;18.918;2023-05-10T20:12:47;13.23;63.81
67603;DHT22;54417;47.454;18.918;2023-05-10T20:17:57;12.87;65.01
67603;DHT22;54417;47.454;18.918;2023-05-10T20:23:06;12.89;65.22
67603;DHT22;54417;47.454;18.918;2023-05-10T20:28:12;12.83;65.59
67603;DHT22;54417;47.454;18.918;2023-05-10T20:33:15;12.72;66.08
67603;DHT22;54417;47.454;18.918;2023-05-10T20:38:20;12.72;64.53
67603;DHT22;54417;47.454;18.918;2023-05-10T20:43:28;12.99;63.57
67603;DHT22;54417;47.454;18.918;2023-05-10T20:48:37;13.08;62.35
67603;DHT22;54417;47.454;18.918;2023-05-10T20:53:41;13.17;62.90
67603;DHT22;54417;47.454;18.918;2023-05-10T20:58:51;13.44;61.45
67603;DHT22;54417;47.454;18.918;2023-05-10T21:03:55;13.38;61.49
67603;DHT22;54417;47.454;18.918;2023-05-10T21:08:59;13.54;61.28
67603;DHT22;54417;47.454;18.918;2023-05-10T21:14:10;13.57;61.89
67603;DHT22;54417;47.454;18.918;2023-05-10T21:19:13;13.81;59.79
67603;DHT22;54417;47.454;18.918;2023-05-10T21:24:18;14.08;57.90
67603;DHT22;54417;47.454;18.918;2023-05-10T21:29:28;14.19;57.75
67603;DHT22;54417;47.454;18.918;2023-05-10T21:34:37;14.30;57.10
67603;DHT22;54417;47.454;18.918;2023-05-10T21:39:41;14.53;56.54
67603;DHT22;54417;47.454;18.918;2023-05-10T21:44:46;14.65;55.45
67603;DHT22;54417;47.454;18.918;2023-05-10T21:49:50;14.63;55.42
67603;DHT22;54417;47.454;18.918;2023-05-10T21:54:54;14.67;54.96
67603;DHT22;54417;47.454;18.918;2023-05-10T22:00:08;14.71;54.53
67603;DHT22;54417;47.454;18.918;2023-05-10T22:05:13;14.70;54.77
67603;DHT22;54417;47.454;18.918;2023-05-10T22:10:18;14.70;54.45
67603;DHT22;54417;47.454;18.918;2023-05-10T22:15:28;14.63;55.62
67603;DHT22;54417;47.454;18.918;2023-05-10T22:20:43;14.47;58.56
67603;DHT22;54417;47.454;18.918;2023-05-10T22:25:52;14.33;59.70
67603;DHT22;54417;47.454;18.918;2023-05-10T22:31:08;14.16;59.86
67603;DHT22;54417;47.454;18.918;2023-05-10T22:36:11;13.85;61.50
67603;DHT22;54417;47.454;18.918;2023-05-10T22:41:21;13.78;61.63
67603;DHT22;54417;47.454;18.918;2023-05-10T22:46:31;13.61;61.74
67603;DHT22;54417;47.454;18.918;2023-05-10T22:51:35;13.43;62.34
67603;DHT22;54417;47.454;18.918;2023-05-10T22:56:44;13.45;62.98
67603;DHT22;54417;47.454;18.918;2023-05-10T23:01:54;13.33;64.92
67603;DHT22;54417;47.454;18.918;2023-05-10T23:07:03;13.10;63.66
67603;DHT22;54417;47.454;18.918;2023-05-10T23:12:17;13.04;64.34
67603;DHT22;54417;47.454;18.918;2023-05-10T23:17:27;13.03;63.76
67603;DHT22;54417;47.454;18.918;2023-05-10T23:22:31;13.02;64.15
67603;DHT22;54417;47.454;18.918;2023-05-10T23:27:39;12.97;64.12
67603;DHT22;54417;47.454;18.918;2023-05-10T23:32:49;12.93;64.94
67603;DHT22;54417;47.454;18.918;2023-05-10T23:37:58;12.75;64.90
67603;DHT22;54417;47.454;18.918;2023-05-10T23:43:02;12.65;64.80
67603;DHT22;54417;47.454;18.918;2023-05-10T23:48:12;12.48;65.38
67603;DHT22;54417;47.454;18.918;2023-05-10T23:53:21;12.41;65.20
67603;DHT22;54417;47.454;18.918;2023-05-10T23:58:29;12.37;65.26
